Time;durP1;ratioP1;P1;durP2;ratioP2;P2;SDS_P1;SDS_P2;PMS_P1;PMS_P2;Temp;Humidity;BMP_temperature;BMP_pressure;BME280_temperature;BME280_humidity;BME280_pressure;Samples;Min_cycle;Max_cycle;Signal;HPM_P1;HPM_P2
2021/05/30 00:01:09;;;;;;;3.83;3.33;;;9.20;99.90;;;;;;5024484;28;21027;-88
2021/05/30 00:03:35;;;;;;;3.00;2.80;;;9.10;99.90;;;;;;5031091;28;20635;-87
2021/05/30 00:06:02;;;;;;;3.10;2.90;;;9.00;99.90;;;;;;5034671;28;20634;-87
2021/05/30 00:08:29;;;;;;;3.17;2.97;;;9.00;99.90;;;;;;5032420;28;20960;-88
2021/05/30 00:10:57;;;;;;;3.33;3.00;;;9.10;99.90;;;;;;5033347;28;20689;-88
2021/05/30 00:13:23;;;;;;;5.10;3.40;;;9.00;99.90;;;;;;5028486;28;20656;-87
2021/05/30 00:15:50;;;;;;;4.80;2.40;;;8.90;99.90;;;;;;5020196;28;20627;-87
2021/05/30 00:18:17;;;;;;;3.23;3.03;;;8.90;99.90;;;;;;5027539;28;20664;-88
2021/05/30 00:20:43;;;;;;;3.80;2.83;;;8.90;99.90;;;;;;5024925;28;20660;-88
2021/05/30 00:23:11;;;;;;;2.50;2.30;;;8.90;99.90;;;;;;5028953;28;20630;-88
2021/05/30 00:25:45;;;;;;;2.90;2.60;;;8.90;99.90;;;;;;5030447;28;20614;-91
2021/05/30 00:28:11;;;;;;;4.03;3.33;;;8.90;99.90;;;;;;5027187;28;20646;-89
2021/05/30 00:30:38;;;;;;;2.70;2.50;;;8.90;99.90;;;;;;5033130;28;20766;-90
2021/05/30 00:33:05;;;;;;;2.97;2.77;;;8.80;99.90;;;;;;5027740;28;20639;-89
2021/05/30 00:35:32;;;;;;;2.43;2.20;;;8.70;99.90;;;;;;5028615;28;20611;-88
2021/05/30 00:37:59;;;;;;;4.30;2.67;;;8.80;99.90;;;;;;5028502;28;20666;-92
2021/05/30 00:40:27;;;;;;;2.37;2.23;;;8.80;99.90;;;;;;5038199;28;20650;-90
2021/05/30 00:42:56;;;;;;;3.30;3.00;;;8.70;99.90;;;;;;5037425;28;21095;-89
2021/05/30 00:45:24;;;;;;;3.07;2.77;;;8.70;99.90;;;;;;5030732;28;20725;-91
2021/05/30 00:47:51;;;;;;;3.67;2.60;;;8.60;99.90;;;;;;5031503;28;20950;-92
2021/05/30 00:50:19;;;;;;;2.77;2.57;;;8.60;99.90;;;;;;5029004;28;20685;-90
2021/05/30 00:52:47;;;;;;;2.70;2.50;;;8.60;99.90;;;;;;5031309;28;20631;-90
2021/05/30 00:55:14;;;;;;;2.67;2.47;;;8.60;99.90;;;;;;5032611;28;20657;-92
2021/05/30 00:57:41;;;;;;;2.97;2.67;;;8.60;99.90;;;;;;5032246;28;20627;-92
2021/05/30 01:00:10;;;;;;;2.60;2.50;;;8.60;99.90;;;;;;5035808;28;20677;-91
2021/05/30 01:02:37;;;;;;;5.40;3.40;;;8.60;99.90;;;;;;5036490;28;20619;-91
2021/05/30 01:05:07;;;;;;;2.90;2.67;;;8.50;99.90;;;;;;5033842;28;20637;-91
2021/05/30 01:07:39;;;;;;;3.40;2.90;;;8.50;99.90;;;;;;5033345;28;20729;-92
2021/05/30 01:10:28;;;;;;;2.63;2.43;;;8.50;99.90;;;;;;5030956;28;20802;-92
2021/05/30 01:12:54;;;;;;;2.80;2.60;;;8.60;99.90;;;;;;5029069;28;20642;-91
2021/05/30 01:15:21;;;;;;;3.23;2.93;;;8.40;99.90;;;;;;5031272;28;20645;-91
2021/05/30 01:17:48;;;;;;;2.77;2.60;;;8.50;99.90;;;;;;5028599;28;20657;-91
2021/05/30 01:20:17;;;;;;;3.87;2.90;;;8.40;99.90;;;;;;5032499;28;20658;-91
2021/05/30 01:22:47;;;;;;;3.33;2.50;;;8.40;99.90;;;;;;5030077;28;20639;-91
2021/05/30 01:25:16;;;;;;;3.10;2.90;;;8.40;99.90;;;;;;5034612;28;20635;-91
2021/05/30 01:27:42;;;;;;;3.20;3.00;;;8.40;99.90;;;;;;5032826;28;20708;-91
2021/05/30 01:30:11;;;;;;;2.93;2.77;;;8.30;99.90;;;;;;5032236;28;20705;-90
2021/05/30 01:32:38;;;;;;;3.40;2.97;;;8.30;99.90;;;;;;5029508;28;20635;-89
2021/05/30 01:35:07;;;;;;;4.33;2.90;;;8.30;99.90;;;;;;5036232;28;20646;-89
2021/05/30 01:37:34;;;;;;;4.53;3.13;;;8.20;99.90;;;;;;5034241;28;20647;-90
2021/05/30 01:40:00;;;;;;;4.00;3.70;;;8.20;99.90;;;;;;5032714;28;20742;-90
2021/05/30 01:42:32;;;;;;;3.93;3.27;;;8.10;99.90;;;;;;5037778;28;20642;-90
2021/05/30 01:44:59;;;;;;;3.70;3.40;;;8.00;99.90;;;;;;5044134;28;20630;-91
2021/05/30 01:47:25;;;;;;;3.20;3.00;;;8.00;99.90;;;;;;5045262;28;20718;-91
2021/05/30 01:49:52;;;;;;;3.60;3.30;;;8.00;99.90;;;;;;5042341;28;20698;-90
2021/05/30 01:52:18;;;;;;;3.03;2.83;;;8.00;99.90;;;;;;5046309;28;20638;-92
2021/05/30 01:54:49;;;;;;;5.03;3.80;;;8.10;99.90;;;;;;5046369;28;20648;-91
2021/05/30 01:57:15;;;;;;;3.00;2.80;;;8.10;99.90;;;;;;5040272;28;20657;-90
2021/05/30 01:59:45;;;;;;;3.50;3.30;;;8.10;99.90;;;;;;5036757;28;20734;-89
2021/05/30 02:02:12;;;;;;;5.57;3.40;;;8.10;99.90;;;;;;5041211;28;21195;-88
2021/05/30 02:04:53;;;;;;;3.47;3.17;;;8.00;99.90;;;;;;5043195;28;20672;-87
2021/05/30 02:07:20;;;;;;;3.20;3.00;;;8.10;99.90;;;;;;5051506;28;20626;-88
2021/05/30 02:09:48;;;;;;;3.20;2.90;;;8.10;99.90;;;;;;5046616;28;20686;-91
2021/05/30 02:12:16;;;;;;;3.20;3.00;;;8.10;99.90;;;;;;5052064;28;20831;-88
2021/05/30 02:14:43;;;;;;;3.50;3.20;;;8.00;99.90;;;;;;5046697;28;20686;-88
2021/05/30 02:17:10;;;;;;;3.50;2.70;;;8.00;99.90;;;;;;5050639;28;20670;-88
2021/05/30 02:19:36;;;;;;;3.03;2.83;;;7.90;99.90;;;;;;5050131;28;20739;-89
2021/05/30 02:22:04;;;;;;;2.97;2.70;;;7.90;99.90;;;;;;5049277;28;20690;-89
2021/05/30 02:24:31;;;;;;;3.17;2.97;;;7.90;99.90;;;;;;5045097;28;20628;-89
2021/05/30 02:26:57;;;;;;;4.10;3.20;;;7.90;99.90;;;;;;5042323;28;20626;-89
2021/05/30 02:29:34;;;;;;;2.90;2.70;;;8.00;99.90;;;;;;5042644;28;20652;-89
2021/05/30 02:32:03;;;;;;;3.63;3.20;;;8.00;99.90;;;;;;5048931;28;20623;-88
2021/05/30 02:34:29;;;;;;;3.30;3.10;;;8.10;99.90;;;;;;5046908;28;20619;-88
2021/05/30 02:36:57;;;;;;;3.53;3.30;;;8.10;99.90;;;;;;5053346;28;20594;-87
2021/05/30 02:39:23;;;;;;;2.97;2.77;;;8.10;99.90;;;;;;5027294;28;20928;-87
2021/05/30 02:41:49;;;;;;;5.00;3.57;;;8.00;99.90;;;;;;5040870;28;20699;-87
2021/05/30 02:44:17;;;;;;;3.57;3.27;;;8.00;99.90;;;;;;5025048;28;20677;-87
2021/05/30 02:46:43;;;;;;;3.20;3.00;;;7.90;99.90;;;;;;5030927;28;21213;-87
2021/05/30 02:49:10;;;;;;;8.23;3.77;;;7.80;99.90;;;;;;5030754;28;20624;-86
2021/05/30 02:51:36;;;;;;;3.73;3.53;;;7.80;99.90;;;;;;5029967;28;20674;-87
2021/05/30 02:54:03;;;;;;;3.60;3.37;;;7.80;99.90;;;;;;5028536;28;20638;-87
2021/05/30 02:56:29;;;;;;;3.67;3.37;;;7.80;99.90;;;;;;5033084;28;20627;-89
2021/05/30 02:58:56;;;;;;;3.07;2.80;;;7.80;99.90;;;;;;5044107;28;20604;-90
2021/05/30 03:01:22;;;;;;;3.43;3.23;;;7.80;99.90;;;;;;5042810;28;20658;-88
2021/05/30 03:03:49;;;;;;;3.53;3.23;;;7.80;99.90;;;;;;5045641;28;20619;-89
2021/05/30 03:06:17;;;;;;;3.43;3.23;;;7.70;99.90;;;;;;5049326;28;20641;-89
2021/05/30 03:08:43;;;;;;;3.43;3.13;;;7.70;99.90;;;;;;5043522;28;20639;-92
2021/05/30 03:11:10;;;;;;;3.77;3.53;;;7.60;99.90;;;;;;5043572;28;20677;-91
2021/05/30 03:13:37;;;;;;;3.73;3.30;;;7.70;99.90;;;;;;5038931;28;20706;-91
2021/05/30 03:16:05;;;;;;;4.10;3.70;;;7.70;99.90;;;;;;5038734;28;20656;-91
2021/05/30 03:18:33;;;;;;;3.57;3.37;;;7.70;99.90;;;;;;5040350;28;21113;-92
2021/05/30 03:21:00;;;;;;;3.60;3.33;;;7.70;99.90;;;;;;5043078;28;20728;-89
2021/05/30 03:23:27;;;;;;;3.40;3.20;;;7.60;99.90;;;;;;5046063;28;20622;-89
2021/05/30 03:25:53;;;;;;;3.47;3.27;;;7.60;99.90;;;;;;5036663;28;20619;-89
2021/05/30 03:28:20;;;;;;;3.90;3.60;;;7.60;99.90;;;;;;5032042;28;20638;-90
2021/05/30 03:30:47;;;;;;;4.77;3.50;;;7.70;99.90;;;;;;5025427;28;21033;-90
2021/05/30 03:33:14;;;;;;;3.87;3.50;;;7.70;99.90;;;;;;5027414;28;20630;-90
2021/05/30 03:35:43;;;;;;;4.33;3.73;;;7.60;99.90;;;;;;5025702;28;20631;-88
2021/05/30 03:38:12;;;;;;;3.87;3.57;;;7.60;99.90;;;;;;5026376;28;20726;-89
2021/05/30 03:40:46;;;;;;;4.07;3.77;;;7.80;99.90;;;;;;5028015;28;20720;-88
2021/05/30 03:43:15;;;;;;;4.20;3.90;;;7.80;99.90;;;;;;5028412;28;20635;-88
2021/05/30 03:45:42;;;;;;;3.50;3.30;;;7.60;99.90;;;;;;5033534;28;20663;-88
2021/05/30 03:48:09;;;;;;;4.97;3.57;;;7.70;99.90;;;;;;5034746;28;21331;-89
2021/05/30 03:50:38;;;;;;;3.30;3.07;;;7.60;99.90;;;;;;5040772;28;20691;-90
2021/05/30 03:53:04;;;;;;;3.87;3.57;;;7.60;99.90;;;;;;5032551;28;20615;-89
2021/05/30 03:55:31;;;;;;;4.03;3.60;;;7.60;99.90;;;;;;5024340;28;20651;-90
2021/05/30 03:58:00;;;;;;;4.27;3.87;;;7.60;99.90;;;;;;5035664;28;20642;-90
2021/05/30 04:00:26;;;;;;;5.00;4.60;;;7.60;99.90;;;;;;5040627;28;20667;-90
2021/05/30 04:02:53;;;;;;;11.07;10.20;;;7.60;99.90;;;;;;5044712;28;20745;-92
2021/05/30 04:05:20;;;;;;;4.93;4.63;;;7.60;99.90;;;;;;5047394;28;20671;-91
2021/05/30 04:07:47;;;;;;;4.33;3.93;;;7.60;99.90;;;;;;5041522;28;20721;-90
2021/05/30 04:10:14;;;;;;;3.80;3.60;;;7.70;99.90;;;;;;5027044;28;21107;-90
2021/05/30 04:12:43;;;;;;;3.30;3.10;;;7.80;99.90;;;;;;5026652;28;20633;-91
2021/05/30 04:15:13;;;;;;;3.90;3.60;;;7.90;99.90;;;;;;5025454;28;20648;-91
2021/05/30 04:17:40;;;;;;;4.10;3.70;;;7.80;99.90;;;;;;5025285;28;20627;-91
2021/05/30 04:20:09;;;;;;;4.73;4.43;;;7.80;99.90;;;;;;5023099;28;20670;-91
2021/05/30 04:22:37;;;;;;;5.73;5.33;;;7.80;99.90;;;;;;5029060;28;20636;-90
2021/05/30 04:25:09;;;;;;;5.50;5.00;;;7.80;99.90;;;;;;5027346;28;21016;-91
2021/05/30 04:27:36;;;;;;;4.70;4.23;;;7.90;99.90;;;;;;5026150;28;20642;-91
2021/05/30 04:30:04;;;;;;;4.20;3.80;;;8.00;99.90;;;;;;5029318;28;20801;-90
2021/05/30 04:32:31;;;;;;;4.27;3.97;;;8.00;99.90;;;;;;5030882;28;20625;-91
2021/05/30 04:34:59;;;;;;;4.27;3.93;;;8.10;99.90;;;;;;5029921;28;20626;-91
2021/05/30 04:37:27;;;;;;;4.43;4.13;;;8.00;99.90;;;;;;5027345;28;20734;-90
2021/05/30 04:39:54;;;;;;;5.20;4.77;;;8.00;99.90;;;;;;5027812;28;20634;-91
2021/05/30 04:42:23;;;;;;;4.70;4.33;;;8.20;99.90;;;;;;5032272;28;20617;-91
2021/05/30 04:44:57;;;;;;;4.20;3.90;;;8.10;99.90;;;;;;5029970;28;20626;-90
2021/05/30 04:47:25;;;;;;;5.27;4.87;;;8.20;99.90;;;;;;5026698;28;21166;-89
2021/05/30 04:49:54;;;;;;;4.20;3.90;;;8.30;99.90;;;;;;5031805;28;21861;-89
2021/05/30 04:52:21;;;;;;;3.70;3.50;;;8.40;99.90;;;;;;5033466;28;20721;-90
2021/05/30 04:54:48;;;;;;;5.20;4.80;;;8.50;99.90;;;;;;5025406;28;20992;-89
2021/05/30 04:57:15;;;;;;;7.20;6.50;;;8.50;99.90;;;;;;5026372;28;20633;-90
2021/05/30 04:59:43;;;;;;;6.50;5.93;;;8.60;99.90;;;;;;5028070;28;20952;-90
2021/05/30 05:02:11;;;;;;;6.57;5.97;;;8.70;99.90;;;;;;5024331;28;20611;-90
2021/05/30 05:04:39;;;;;;;6.43;5.43;;;8.90;99.90;;;;;;5028762;28;21162;-92
2021/05/30 05:07:07;;;;;;;5.83;5.30;;;9.00;99.90;;;;;;5028939;28;20989;-90
2021/05/30 05:09:34;;;;;;;6.90;6.30;;;9.10;99.90;;;;;;5030591;28;20664;-90
2021/05/30 05:12:02;;;;;;;6.60;6.00;;;9.20;99.90;;;;;;5029126;28;20677;-93
2021/05/30 05:14:28;;;;;;;6.27;5.70;;;9.20;99.90;;;;;;5029838;28;20649;-90
2021/05/30 05:16:55;;;;;;;5.60;5.10;;;9.30;99.90;;;;;;5029819;28;21232;-90
2021/05/30 05:19:23;;;;;;;6.30;5.70;;;9.50;99.90;;;;;;5030650;28;20633;-88
2021/05/30 05:21:49;;;;;;;7.73;5.90;;;9.70;99.90;;;;;;5037557;28;20621;-90
2021/05/30 05:24:17;;;;;;;6.40;5.80;;;9.80;99.90;;;;;;5031030;28;20633;-90
2021/05/30 05:26:43;;;;;;;6.20;5.60;;;10.00;99.90;;;;;;5025528;28;20645;-88
2021/05/30 05:29:09;;;;;;;6.43;5.43;;;10.20;99.90;;;;;;5029481;28;20653;-90
2021/05/30 05:31:36;;;;;;;6.80;4.90;;;10.40;99.90;;;;;;5035249;28;20681;-93
2021/05/30 05:34:03;;;;;;;5.50;5.00;;;10.50;99.90;;;;;;5028971;28;21007;-90
2021/05/30 05:36:29;;;;;;;5.37;4.97;;;10.70;99.90;;;;;;5032948;28;20646;-92
2021/05/30 05:38:55;;;;;;;5.03;4.60;;;10.80;99.90;;;;;;5030326;28;20631;-92
2021/05/30 05:41:24;;;;;;;5.33;4.83;;;10.90;99.90;;;;;;5029291;28;20680;-91
2021/05/30 05:43:50;;;;;;;5.73;4.83;;;11.10;99.90;;;;;;5028444;28;20627;-92
2021/05/30 05:46:17;;;;;;;5.30;4.90;;;11.20;99.90;;;;;;5028626;28;20626;-91
2021/05/30 05:48:43;;;;;;;4.50;4.20;;;11.20;99.90;;;;;;5025137;28;20642;-91
2021/05/30 05:51:10;;;;;;;5.20;4.80;;;11.30;99.90;;;;;;5029412;28;20667;-90
2021/05/30 05:53:39;;;;;;;4.90;4.50;;;11.50;99.90;;;;;;5034056;28;20631;-91
2021/05/30 05:56:08;;;;;;;6.07;4.43;;;11.70;99.90;;;;;;5029337;28;20643;-91
2021/05/30 05:58:35;;;;;;;4.10;3.70;;;11.90;99.90;;;;;;5027992;28;20587;-91
2021/05/30 06:01:02;;;;;;;5.03;4.53;;;12.10;99.90;;;;;;5027720;28;20718;-92
2021/05/30 06:03:30;;;;;;;5.20;4.70;;;12.20;99.90;;;;;;5035589;28;21372;-88
2021/05/30 06:05:56;;;;;;;4.70;4.30;;;12.40;99.90;;;;;;5032926;28;21189;-90
2021/05/30 06:08:23;;;;;;;4.97;4.67;;;12.50;99.90;;;;;;5033823;28;20637;-88
2021/05/30 06:10:49;;;;;;;6.03;4.50;;;12.60;99.90;;;;;;5035134;28;20677;-89
2021/05/30 06:13:16;;;;;;;5.33;4.93;;;12.70;99.90;;;;;;5026360;28;20670;-89
2021/05/30 06:15:43;;;;;;;5.03;4.53;;;12.60;99.90;;;;;;5025303;28;21299;-88
2021/05/30 06:18:11;;;;;;;4.60;4.20;;;12.80;99.90;;;;;;5040106;28;20627;-90
2021/05/30 06:20:38;;;;;;;5.67;4.43;;;12.80;99.90;;;;;;5043442;28;21520;-90
2021/05/30 06:23:06;;;;;;;4.70;4.30;;;13.10;99.90;;;;;;5046550;28;20623;-90
2021/05/30 06:25:33;;;;;;;4.00;3.70;;;13.20;99.90;;;;;;5043539;28;20624;-90
2021/05/30 06:28:00;;;;;;;3.80;3.50;;;13.30;99.90;;;;;;5042603;28;20676;-91
2021/05/30 06:30:28;;;;;;;3.73;3.43;;;13.30;99.90;;;;;;5038002;28;21128;-90
2021/05/30 06:32:57;;;;;;;3.83;3.33;;;13.50;99.90;;;;;;5037817;28;21120;-90
2021/05/30 06:35:23;;;;;;;3.83;3.40;;;13.80;99.90;;;;;;5041696;28;20625;-91
2021/05/30 06:37:50;;;;;;;3.30;3.00;;;14.00;99.90;;;;;;5036471;28;20627;-90
2021/05/30 06:40:16;;;;;;;3.83;3.43;;;14.10;99.90;;;;;;5028885;28;20647;-89
2021/05/30 06:42:46;;;;;;;4.60;3.57;;;14.20;99.90;;;;;;5023798;28;20631;-90
2021/05/30 06:45:13;;;;;;;5.33;3.10;;;14.40;99.90;;;;;;5031077;28;20685;-90
2021/05/30 06:47:39;;;;;;;3.60;3.13;;;14.50;99.90;;;;;;5028055;28;20641;-90
2021/05/30 06:50:08;;;;;;;6.37;2.90;;;14.70;99.90;;;;;;5026012;28;20675;-89
2021/05/30 06:52:35;;;;;;;3.10;2.80;;;14.90;99.90;;;;;;5027642;28;21221;-90
2021/05/30 06:55:01;;;;;;;3.83;3.53;;;15.00;99.90;;;;;;5034066;28;20634;-90
2021/05/30 06:57:27;;;;;;;3.30;3.00;;;15.10;99.90;;;;;;5029755;28;21360;-89
2021/05/30 06:59:54;;;;;;;3.23;2.83;;;15.00;99.90;;;;;;5033590;28;20699;-90
2021/05/30 07:02:20;;;;;;;2.17;2.07;;;15.00;99.90;;;;;;5029955;28;20634;-90
2021/05/30 07:04:46;;;;;;;4.00;2.97;;;15.30;99.20;;;;;;5034110;28;21034;-90
2021/05/30 07:07:15;;;;;;;3.60;3.30;;;15.50;97.90;;;;;;5030232;28;20630;-90
2021/05/30 07:09:41;;;;;;;2.80;2.50;;;15.30;98.80;;;;;;5022397;28;20730;-91
2021/05/30 07:12:09;;;;;;;3.10;2.80;;;15.50;99.40;;;;;;5027433;28;20722;-90
2021/05/30 07:14:35;;;;;;;2.70;2.50;;;15.40;97.90;;;;;;5028104;28;20643;-90
2021/05/30 07:17:01;;;;;;;3.70;2.90;;;15.60;98.80;;;;;;5030008;28;20623;-90
2021/05/30 07:19:28;;;;;;;3.43;3.10;;;15.50;97.40;;;;;;5032945;28;21098;-91
2021/05/30 07:21:54;;;;;;;2.90;2.70;;;15.60;98.00;;;;;;5037155;28;20643;-90
2021/05/30 07:24:23;;;;;;;3.30;2.73;;;15.70;97.40;;;;;;5038315;28;20638;-89
2021/05/30 07:26:50;;;;;;;1.97;1.80;;;15.90;95.60;;;;;;5031104;28;20615;-89
2021/05/30 07:29:17;;;;;;;2.67;2.47;;;16.10;93.50;;;;;;5034153;28;21296;-90
2021/05/30 07:31:44;;;;;;;4.13;3.20;;;16.00;93.00;;;;;;5037228;28;21077;-90
2021/05/30 07:34:11;;;;;;;3.93;2.60;;;16.10;91.90;;;;;;5034105;28;20634;-90
2021/05/30 07:36:37;;;;;;;2.27;2.17;;;16.10;92.50;;;;;;5041873;28;20615;-90
2021/05/30 07:39:05;;;;;;;2.70;2.50;;;16.40;92.60;;;;;;5046759;28;20660;-90
2021/05/30 07:41:35;;;;;;;2.80;2.60;;;16.50;92.10;;;;;;5042781;28;20619;-91
2021/05/30 07:44:02;;;;;;;2.87;2.63;;;16.70;92.30;;;;;;5031372;28;20639;-90
2021/05/30 07:46:31;;;;;;;2.50;2.30;;;16.80;91.50;;;;;;5028848;28;20666;-90
2021/05/30 07:48:58;;;;;;;4.43;2.17;;;16.70;91.40;;;;;;5031628;28;20815;-90
2021/05/30 07:51:28;;;;;;;3.33;3.13;;;17.00;93.30;;;;;;5033789;28;20693;-91
2021/05/30 07:53:58;;;;;;;2.63;2.43;;;17.10;92.00;;;;;;5031254;28;20627;-90
2021/05/30 07:56:24;;;;;;;3.00;2.50;;;17.10;92.50;;;;;;5033773;28;21494;-90
2021/05/30 07:58:52;;;;;;;2.53;2.33;;;17.00;92.00;;;;;;5034670;28;20630;-89
2021/05/30 08:01:18;;;;;;;3.83;2.20;;;17.10;92.80;;;;;;5042954;28;20626;-91
2021/05/30 08:03:44;;;;;;;3.43;3.13;;;17.20;92.20;;;;;;5031396;28;20630;-90
2021/05/30 08:06:11;;;;;;;3.33;1.77;;;17.30;92.60;;;;;;5033952;28;20622;-89
2021/05/30 08:08:37;;;;;;;2.33;2.10;;;17.30;90.70;;;;;;5031064;28;20638;-91
2021/05/30 08:11:04;;;;;;;2.83;2.47;;;17.10;90.30;;;;;;5026456;28;20677;-89
2021/05/30 08:13:30;;;;;;;2.83;2.40;;;16.90;90.40;;;;;;5033068;28;20597;-89
2021/05/30 08:15:57;;;;;;;3.43;2.70;;;17.20;91.20;;;;;;5032926;28;21188;-89
2021/05/30 08:18:24;;;;;;;4.43;2.43;;;17.40;90.30;;;;;;5030269;28;20633;-89
2021/05/30 08:20:50;;;;;;;3.80;2.40;;;17.40;88.20;;;;;;5031741;28;20650;-89
2021/05/30 08:23:16;;;;;;;2.80;2.53;;;17.60;89.30;;;;;;5038747;28;20629;-88
2021/05/30 08:25:43;;;;;;;3.20;2.40;;;17.80;88.00;;;;;;5032383;28;20606;-89
2021/05/30 08:28:10;;;;;;;2.67;2.40;;;17.70;87.10;;;;;;5042841;28;20642;-88
2021/05/30 08:30:37;;;;;;;3.97;2.50;;;17.40;87.20;;;;;;5036746;28;20667;-89
2021/05/30 08:33:04;;;;;;;3.13;2.67;;;17.50;87.00;;;;;;5046409;28;20626;-90
2021/05/30 08:35:32;;;;;;;2.93;2.50;;;17.70;89.00;;;;;;5035247;28;20622;-89
2021/05/30 08:37:58;;;;;;;3.00;2.80;;;17.90;87.50;;;;;;5034098;28;20619;-88
2021/05/30 08:40:25;;;;;;;2.50;2.10;;;17.90;88.60;;;;;;5034760;28;20760;-89
2021/05/30 08:42:52;;;;;;;2.27;2.00;;;18.20;84.20;;;;;;5034870;28;20634;-89
2021/05/30 08:45:20;;;;;;;2.80;2.60;;;17.80;80.70;;;;;;5032599;28;20631;-88
2021/05/30 08:47:48;;;;;;;3.40;2.17;;;18.00;83.40;;;;;;5026948;28;20628;-89
2021/05/30 08:50:19;;;;;;;3.47;2.13;;;18.30;84.60;;;;;;5027058;28;20684;-88
2021/05/30 08:52:46;;;;;;;4.20;2.40;;;18.30;83.10;;;;;;5026592;28;20621;-91
2021/05/30 08:55:12;;;;;;;2.67;2.47;;;18.40;79.40;;;;;;5026342;28;20696;-90
2021/05/30 08:57:39;;;;;;;3.00;2.63;;;18.40;79.20;;;;;;5024953;28;20822;-91
2021/05/30 09:00:10;;;;;;;3.03;2.83;;;18.50;81.10;;;;;;5026099;28;20665;-91
2021/05/30 09:02:36;;;;;;;4.37;2.87;;;18.70;79.40;;;;;;5027929;28;20639;-90
2021/05/30 09:05:05;;;;;;;3.50;3.03;;;18.30;79.40;;;;;;5027697;28;21196;-90
2021/05/30 09:07:42;;;;;;;3.47;2.60;;;18.80;81.70;;;;;;5028122;28;20631;-88
2021/05/30 09:10:11;;;;;;;2.37;1.90;;;19.20;79.10;;;;;;5026388;28;20646;-89
2021/05/30 09:12:39;;;;;;;2.67;2.47;;;19.30;77.20;;;;;;5029558;28;20638;-91
2021/05/30 09:15:10;;;;;;;2.63;2.43;;;19.60;76.40;;;;;;5026072;28;21152;-90
2021/05/30 09:17:37;;;;;;;2.27;2.07;;;19.30;75.80;;;;;;5031174;28;20621;-88
2021/05/30 09:20:06;;;;;;;2.40;2.20;;;18.70;73.90;;;;;;5032964;28;20763;-89
2021/05/30 09:22:36;;;;;;;2.53;2.00;;;18.10;75.00;;;;;;5033023;28;20638;-90
2021/05/30 09:25:15;;;;;;;2.00;1.90;;;17.90;75.70;;;;;;5034943;28;20675;-90
2021/05/30 09:27:54;;;;;;;2.20;2.00;;;18.10;77.80;;;;;;5025293;28;20634;-89
2021/05/30 09:30:26;;;;;;;2.30;2.10;;;18.30;75.50;;;;;;5022523;28;21561;-90
2021/05/30 09:33:01;;;;;;;3.37;1.97;;;18.80;74.90;;;;;;5023621;28;20726;-89
2021/05/30 09:35:30;;;;;;;2.20;2.00;;;19.10;74.10;;;;;;5021752;28;20722;-90
2021/05/30 09:38:02;;;;;;;2.93;1.97;;;19.10;73.40;;;;;;5024051;28;20622;-88
2021/05/30 09:40:37;;;;;;;2.40;2.13;;;19.10;75.80;;;;;;5025478;28;21253;-90
2021/05/30 09:43:07;;;;;;;2.80;2.60;;;18.70;74.90;;;;;;5027239;28;20583;-90
2021/05/30 09:45:33;;;;;;;4.50;2.40;;;18.40;75.70;;;;;;5029585;28;20642;-89
2021/05/30 09:48:02;;;;;;;2.40;2.20;;;18.30;78.30;;;;;;5021813;28;21055;-88
2021/05/30 09:50:32;;;;;;;2.60;2.40;;;19.20;76.70;;;;;;5024332;28;20685;-88
2021/05/30 09:53:01;;;;;;;2.73;2.53;;;19.90;73.10;;;;;;5029291;28;20630;-89
2021/05/30 09:55:32;;;;;;;2.93;2.73;;;20.00;74.20;;;;;;5023908;28;20693;-89
2021/05/30 09:58:18;;;;;;;2.90;2.60;;;19.90;73.50;;;;;;5025622;28;20654;-89
2021/05/30 10:00:58;;;;;;;2.63;2.40;;;20.00;71.80;;;;;;5021951;28;20669;-89
2021/05/30 10:03:25;;;;;;;2.97;2.77;;;20.10;73.00;;;;;;5027205;28;20610;-88
2021/05/30 10:05:51;;;;;;;2.97;2.30;;;20.40;70.60;;;;;;5024376;28;20626;-88
2021/05/30 10:08:20;;;;;;;2.93;2.73;;;20.20;73.40;;;;;;5028617;28;20634;-90
2021/05/30 10:10:47;;;;;;;2.73;2.10;;;20.10;68.10;;;;;;5030480;28;20666;-88
2021/05/30 10:13:15;;;;;;;2.50;2.30;;;20.30;70.50;;;;;;5028031;28;20643;-87
2021/05/30 10:15:42;;;;;;;2.30;2.10;;;21.30;69.20;;;;;;5026876;28;20741;-91
2021/05/30 10:18:13;;;;;;;2.40;2.00;;;20.60;66.30;;;;;;5030209;28;20646;-87
2021/05/30 10:20:40;;;;;;;2.73;1.60;;;21.20;66.80;;;;;;5027732;28;21427;-88
2021/05/30 10:23:09;;;;;;;2.20;2.07;;;21.00;66.80;;;;;;5028626;28;20622;-88
2021/05/30 10:25:37;;;;;;;3.67;2.30;;;21.40;66.00;;;;;;5025486;28;20611;-90
2021/05/30 10:28:12;;;;;;;2.50;1.90;;;21.90;63.90;;;;;;5023860;28;20649;-88
2021/05/30 10:30:42;;;;;;;2.83;2.43;;;21.30;65.90;;;;;;5025108;28;20719;-89
2021/05/30 10:33:12;;;;;;;3.57;2.70;;;21.10;64.40;;;;;;5026288;28;20622;-88
2021/05/30 10:35:39;;;;;;;2.53;2.33;;;21.50;66.40;;;;;;5025225;28;20627;-89
2021/05/30 10:38:06;;;;;;;2.60;2.40;;;21.50;65.40;;;;;;5025480;28;20988;-88
2021/05/30 10:40:35;;;;;;;2.40;2.20;;;21.80;64.70;;;;;;5024316;28;20662;-88
2021/05/30 10:43:22;;;;;;;3.63;2.40;;;21.40;66.50;;;;;;5025367;28;20618;-87
2021/05/30 10:46:01;;;;;;;2.87;2.60;;;20.60;65.70;;;;;;5026353;28;21078;-88
2021/05/30 10:48:27;;;;;;;2.60;2.40;;;20.40;67.20;;;;;;5030580;28;20639;-89
2021/05/30 10:51:08;;;;;;;2.60;2.40;;;20.80;65.90;;;;;;5042004;28;20689;-88
2021/05/30 10:53:38;;;;;;;3.67;2.53;;;21.70;64.00;;;;;;5037931;28;20670;-89
2021/05/30 10:56:26;;;;;;;2.53;2.33;;;22.10;63.20;;;;;;5023915;28;20687;-89
2021/05/30 10:59:32;;;;;;;2.80;2.50;;;22.50;64.40;;;;;;5024251;28;20650;-90
2021/05/30 11:02:03;;;;;;;2.30;2.10;;;22.30;63.00;;;;;;5032757;28;20645;-90
2021/05/30 11:04:33;;;;;;;3.10;2.23;;;22.30;60.60;;;;;;5025763;28;21162;-91
2021/05/30 11:07:01;;;;;;;2.70;2.00;;;22.90;56.20;;;;;;5017205;28;20633;-89
2021/05/30 11:10:03;;;;;;;3.00;2.37;;;22.50;57.50;;;;;;5025179;28;20705;-90
2021/05/30 11:12:31;;;;;;;2.50;2.30;;;23.20;57.40;;;;;;5021486;28;20648;-90
2021/05/30 11:15:20;;;;;;;2.60;2.40;;;22.20;57.20;;;;;;5022043;28;20631;-89
2021/05/30 11:17:49;;;;;;;3.30;2.70;;;21.80;59.80;;;;;;5019182;28;20624;-88
2021/05/30 11:20:18;;;;;;;2.83;2.60;;;22.90;58.00;;;;;;5017009;28;21170;-89
2021/05/30 11:22:46;;;;;;;3.00;2.70;;;23.10;57.10;;;;;;5020231;28;20628;-89
2021/05/30 11:25:14;;;;;;;2.60;2.40;;;22.20;56.20;;;;;;5021920;28;20635;-88
2021/05/30 11:27:52;;;;;;;7.33;2.50;;;21.80;57.40;;;;;;5020010;28;20611;-88
2021/05/30 11:30:41;;;;;;;3.90;2.40;;;21.70;56.70;;;;;;5019444;28;20662;-88
2021/05/30 11:33:10;;;;;;;2.20;2.10;;;22.00;56.80;;;;;;5026502;28;21130;-88
2021/05/30 11:35:36;;;;;;;3.90;2.60;;;22.70;56.80;;;;;;5028358;28;21616;-88
2021/05/30 11:38:03;;;;;;;5.23;4.73;;;23.10;55.30;;;;;;5025168;28;20641;-89
2021/05/30 11:40:34;;;;;;;6.50;6.00;;;22.70;55.90;;;;;;5020787;28;20651;-87
2021/05/30 11:43:17;;;;;;;2.83;1.90;;;22.30;56.50;;;;;;5020469;28;21192;-89
2021/05/30 11:45:45;;;;;;;2.80;2.10;;;21.40;57.80;;;;;;5019105;28;20635;-88
2021/05/30 11:48:14;;;;;;;2.60;2.40;;;21.10;56.10;;;;;;5020420;28;20630;-88
2021/05/30 11:50:50;;;;;;;2.60;2.40;;;22.10;56.50;;;;;;5017059;28;20671;-88
2021/05/30 11:53:25;;;;;;;1.93;1.83;;;22.50;54.00;;;;;;5019155;28;20622;-88
2021/05/30 11:55:52;;;;;;;2.63;2.43;;;23.00;54.30;;;;;;5025240;28;20618;-89
2021/05/30 11:58:18;;;;;;;2.43;2.23;;;22.80;52.50;;;;;;5017686;28;20645;-89
2021/05/30 12:00:45;;;;;;;2.20;2.00;;;22.20;55.10;;;;;;5020749;28;20661;-88
2021/05/30 12:03:13;;;;;;;2.27;2.07;;;21.90;55.70;;;;;;5023912;28;20758;-89
2021/05/30 12:05:40;;;;;;;3.20;2.30;;;22.30;54.90;;;;;;5018708;28;20748;-89
2021/05/30 12:08:17;;;;;;;3.03;2.20;;;22.90;56.00;;;;;;5020485;28;20204;-89
2021/05/30 12:10:51;;;;;;;2.83;2.37;;;23.40;53.30;;;;;;5019514;28;21279;-89
2021/05/30 12:13:29;;;;;;;2.53;2.43;;;23.10;53.50;;;;;;5021686;28;20619;-87
2021/05/30 12:15:57;;;;;;;8.60;3.20;;;22.90;53.10;;;;;;5026078;28;20617;-89
2021/05/30 12:18:26;;;;;;;6.00;2.70;;;22.70;54.20;;;;;;5026371;28;21446;-89
2021/05/30 12:21:00;;;;;;;3.90;2.00;;;22.30;55.10;;;;;;5021153;28;20653;-87
2021/05/30 12:23:27;;;;;;;2.83;2.33;;;22.50;55.30;;;;;;5025508;28;20801;-88
2021/05/30 12:25:58;;;;;;;2.50;2.30;;;23.10;55.10;;;;;;5023893;28;20619;-90
2021/05/30 12:28:29;;;;;;;2.13;1.93;;;23.20;51.30;;;;;;5023701;28;20677;-91
2021/05/30 12:30:56;;;;;;;2.30;2.10;;;23.90;52.70;;;;;;5018060;28;20683;-91
2021/05/30 12:33:24;;;;;;;5.73;2.53;;;24.40;51.70;;;;;;5023460;28;20661;-89
2021/05/30 12:35:53;;;;;;;2.23;2.03;;;24.30;50.30;;;;;;5024323;28;21036;-90
2021/05/30 12:38:20;;;;;;;2.83;2.63;;;25.10;51.10;;;;;;5022342;28;20652;-89
2021/05/30 12:40:48;;;;;;;2.00;1.83;;;25.40;49.20;;;;;;5022734;28;20650;-89
2021/05/30 12:43:15;;;;;;;3.73;2.73;;;26.40;48.30;;;;;;5020949;28;20713;-88
2021/05/30 12:46:11;;;;;;;2.73;2.40;;;26.60;47.30;;;;;;5022626;28;21076;-89
2021/05/30 12:48:48;;;;;;;6.43;2.27;;;25.90;46.60;;;;;;4961341;28;20628;-89
2021/05/30 12:51:16;;;;;;;2.50;2.30;;;24.90;48.00;;;;;;5017388;28;20728;-90
2021/05/30 12:53:45;;;;;;;3.40;2.50;;;23.80;47.40;;;;;;5028626;28;20660;-89
2021/05/30 12:56:18;;;;;;;3.80;2.27;;;23.20;49.30;;;;;;5028281;28;20641;-89
2021/05/30 12:58:44;;;;;;;2.60;2.40;;;23.60;48.60;;;;;;5022562;28;21134;-88